sensor_id;sensor_type;location;lat;lon;timestamp;P1;durP1;ratioP1;P2;durP2;ratioP2
2416;SDS011;1219;48.736;9.330;2023-05-07T00:01:41;2.37;;;2.20;;
2416;SDS011;1219;48.736;9.330;2023-05-07T00:04:06;2.53;;;2.33;;
2416;SDS011;1219;48.736;9.330;2023-05-07T00:06:32;2.53;;;2.33;;
2416;SDS011;1219;48.736;9.330;2023-05-07T00:08:58;2.83;;;2.53;;
2416;SDS011;1219;48.736;9.330;2023-05-07T00:11:25;2.40;;;2.20;;
2416;SDS011;1219;48.736;9.330;2023-05-07T00:13:51;3.43;;;2.50;;
2416;SDS011;1219;48.736;9.330;2023-05-07T00:16:17;2.63;;;2.43;;
2416;SDS011;1219;48.736;9.330;2023-05-07T00:18:43;2.70;;;2.50;;
2416;SDS011;1219;48.736;9.330;2023-05-07T00:21:10;3.17;;;2.90;;
2416;SDS011;1219;48.736;9.330;2023-05-07T00:23:36;2.87;;;2.67;;
2416;SDS011;1219;48.736;9.330;2023-05-07T00:26:02;2.93;;;2.63;;
2416;SDS011;1219;48.736;9.330;2023-05-07T00:28:28;2.60;;;2.37;;
2416;SDS011;1219;48.736;9.330;2023-05-07T00:30:54;2.60;;;2.40;;
2416;SDS011;1219;48.736;9.330;2023-05-07T00:33:20;2.63;;;2.40;;
2416;SDS011;1219;48.736;9.330;2023-05-07T00:35:47;2.73;;;2.53;;
2416;SDS011;1219;48.736;9.330;2023-05-07T00:38:13;2.60;;;2.40;;
2416;SDS011;1219;48.736;9.330;2023-05-07T00:40:39;3.10;;;2.80;;
2416;SDS011;1219;48.736;9.330;2023-05-07T00:43:05;2.27;;;2.10;;
2416;SDS011;1219;48.736;9.330;2023-05-07T00:45:32;2.40;;;2.23;;
2416;SDS011;1219;48.736;9.330;2023-05-07T00:47:59;3.30;;;2.70;;
2416;SDS011;1219;48.736;9.330;2023-05-07T00:50:28;3.23;;;2.27;;
2416;SDS011;1219;48.736;9.330;2023-05-07T00:52:55;3.67;;;2.90;;
2416;SDS011;1219;48.736;9.330;2023-05-07T00:55:21;2.90;;;2.70;;
2416;SDS011;1219;48.736;9.330;2023-05-07T00:57:47;3.50;;;2.37;;
2416;SDS011;1219;48.736;9.330;2023-05-07T01:00:14;2.80;;;2.60;;
2416;SDS011;1219;48.736;9.330;2023-05-07T01:02:40;3.10;;;2.90;;
2416;SDS011;1219;48.736;9.330;2023-05-07T01:05:08;2.67;;;2.47;;
2416;SDS011;1219;48.736;9.330;2023-05-07T01:07:34;2.60;;;2.40;;
2416;SDS011;1219;48.736;9.330;2023-05-07T01:10:00;3.03;;;2.83;;
2416;SDS011;1219;48.736;9.330;2023-05-07T01:12:28;3.07;;;2.77;;
2416;SDS011;1219;48.736;9.330;2023-05-07T01:14:54;3.00;;;2.70;;
2416;SDS011;1219;48.736;9.330;2023-05-07T01:17:20;4.17;;;3.37;;
2416;SDS011;1219;48.736;9.330;2023-05-07T01:19:46;3.00;;;2.73;;
2416;SDS011;1219;48.736;9.330;2023-05-07T01:22:12;3.27;;;2.97;;
2416;SDS011;1219;48.736;9.330;2023-05-07T01:24:41;3.60;;;3.30;;
2416;SDS011;1219;48.736;9.330;2023-05-07T01:27:07;3.03;;;2.77;;
2416;SDS011;1219;48.736;9.330;2023-05-07T01:29:33;3.20;;;2.90;;
2416;SDS011;1219;48.736;9.330;2023-05-07T01:32:00;3.33;;;3.03;;
2416;SDS011;1219;48.736;9.330;2023-05-07T01:34:30;2.80;;;2.60;;
2416;SDS011;1219;48.736;9.330;2023-05-07T01:36:57;3.73;;;3.43;;
2416;SDS011;1219;48.736;9.330;2023-05-07T01:39:27;3.83;;;3.43;;
2416;SDS011;1219;48.736;9.330;2023-05-07T01:41:57;3.90;;;3.07;;
2416;SDS011;1219;48.736;9.330;2023-05-07T01:44:24;6.63;;;4.30;;
2416;SDS011;1219;48.736;9.330;2023-05-07T01:46:51;4.57;;;4.27;;
2416;SDS011;1219;48.736;9.330;2023-05-07T01:49:17;4.13;;;3.83;;
2416;SDS011;1219;48.736;9.330;2023-05-07T01:51:43;5.10;;;3.90;;
2416;SDS011;1219;48.736;9.330;2023-05-07T01:54:09;3.37;;;3.17;;
2416;SDS011;1219;48.736;9.330;2023-05-07T01:56:35;3.27;;;3.07;;
2416;SDS011;1219;48.736;9.330;2023-05-07T01:59:01;4.03;;;3.83;;
2416;SDS011;1219;48.736;9.330;2023-05-07T02:01:27;2.63;;;2.43;;
2416;SDS011;1219;48.736;9.330;2023-05-07T02:03:53;3.10;;;2.80;;
2416;SDS011;1219;48.736;9.330;2023-05-07T02:06:19;4.50;;;4.20;;
2416;SDS011;1219;48.736;9.330;2023-05-07T02:08:46;5.03;;;3.07;;
2416;SDS011;1219;48.736;9.330;2023-05-07T02:11:12;3.87;;;2.70;;
2416;SDS011;1219;48.736;9.330;2023-05-07T02:13:39;4.93;;;2.50;;
2416;SDS011;1219;48.736;9.330;2023-05-07T02:16:05;2.60;;;2.40;;
2416;SDS011;1219;48.736;9.330;2023-05-07T02:18:31;3.40;;;2.67;;
2416;SDS011;1219;48.736;9.330;2023-05-07T02:20:57;4.63;;;2.90;;
2416;SDS011;1219;48.736;9.330;2023-05-07T02:23:23;3.90;;;3.20;;
2416;SDS011;1219;48.736;9.330;2023-05-07T02:25:49;2.63;;;2.43;;
2416;SDS011;1219;48.736;9.330;2023-05-07T02:28:15;2.90;;;2.60;;
2416;SDS011;1219;48.736;9.330;2023-05-07T02:30:41;2.60;;;2.40;;
2416;SDS011;1219;48.736;9.330;2023-05-07T02:33:07;2.93;;;2.73;;
2416;SDS011;1219;48.736;9.330;2023-05-07T02:35:33;3.13;;;2.93;;
2416;SDS011;1219;48.736;9.330;2023-05-07T02:37:59;2.90;;;2.70;;
2416;SDS011;1219;48.736;9.330;2023-05-07T02:40:25;3.17;;;2.80;;
2416;SDS011;1219;48.736;9.330;2023-05-07T02:42:51;3.90;;;3.60;;
2416;SDS011;1219;48.736;9.330;2023-05-07T02:45:17;6.10;;;3.33;;
2416;SDS011;1219;48.736;9.330;2023-05-07T02:47:43;4.00;;;3.03;;
2416;SDS011;1219;48.736;9.330;2023-05-07T02:50:09;3.60;;;2.50;;
2416;SDS011;1219;48.736;9.330;2023-05-07T02:52:35;3.60;;;3.33;;
2416;SDS011;1219;48.736;9.330;2023-05-07T02:55:02;3.23;;;3.03;;
2416;SDS011;1219;48.736;9.330;2023-05-07T02:57:28;3.50;;;3.20;;
2416;SDS011;1219;48.736;9.330;2023-05-07T02:59:54;3.90;;;3.40;;
2416;SDS011;1219;48.736;9.330;2023-05-07T03:02:20;3.43;;;3.20;;
2416;SDS011;1219;48.736;9.330;2023-05-07T03:04:46;3.10;;;2.90;;
2416;SDS011;1219;48.736;9.330;2023-05-07T03:07:12;3.23;;;2.93;;
2416;SDS011;1219;48.736;9.330;2023-05-07T03:09:38;3.70;;;3.40;;
2416;SDS011;1219;48.736;9.330;2023-05-07T03:12:04;3.60;;;3.30;;
2416;SDS011;1219;48.736;9.330;2023-05-07T03:14:29;3.47;;;3.27;;
2416;SDS011;1219;48.736;9.330;2023-05-07T03:16:55;4.23;;;3.80;;
2416;SDS011;1219;48.736;9.330;2023-05-07T03:19:21;3.80;;;3.47;;
2416;SDS011;1219;48.736;9.330;2023-05-07T03:21:47;4.70;;;3.90;;
2416;SDS011;1219;48.736;9.330;2023-05-07T03:24:13;3.83;;;3.53;;
2416;SDS011;1219;48.736;9.330;2023-05-07T03:26:39;5.10;;;3.30;;
2416;SDS011;1219;48.736;9.330;2023-05-07T03:29:05;3.53;;;3.33;;
2416;SDS011;1219;48.736;9.330;2023-05-07T03:31:31;3.63;;;3.33;;
2416;SDS011;1219;48.736;9.330;2023-05-07T03:33:57;3.60;;;3.30;;
2416;SDS011;1219;48.736;9.330;2023-05-07T03:36:23;3.90;;;3.60;;
2416;SDS011;1219;48.736;9.330;2023-05-07T03:38:51;3.70;;;3.40;;
2416;SDS011;1219;48.736;9.330;2023-05-07T03:41:17;3.97;;;3.67;;
2416;SDS011;1219;48.736;9.330;2023-05-07T03:43:43;3.83;;;3.57;;
2416;SDS011;1219;48.736;9.330;2023-05-07T03:46:09;6.47;;;4.30;;
2416;SDS011;1219;48.736;9.330;2023-05-07T03:48:35;4.90;;;3.73;;
2416;SDS011;1219;48.736;9.330;2023-05-07T03:51:01;6.30;;;3.80;;
2416;SDS011;1219;48.736;9.330;2023-05-07T03:53:27;4.10;;;3.43;;
2416;SDS011;1219;48.736;9.330;2023-05-07T03:55:53;4.83;;;4.43;;
2416;SDS011;1219;48.736;9.330;2023-05-07T03:58:19;4.50;;;4.20;;
2416;SDS011;1219;48.736;9.330;2023-05-07T04:00:45;5.83;;;4.83;;
2416;SDS011;1219;48.736;9.330;2023-05-07T04:03:11;4.50;;;4.03;;
2416;SDS011;1219;48.736;9.330;2023-05-07T04:05:37;5.10;;;4.60;;
2416;SDS011;1219;48.736;9.330;2023-05-07T04:08:03;5.40;;;4.10;;
2416;SDS011;1219;48.736;9.330;2023-05-07T04:10:29;4.50;;;4.13;;
2416;SDS011;1219;48.736;9.330;2023-05-07T04:12:55;4.37;;;3.97;;
2416;SDS011;1219;48.736;9.330;2023-05-07T04:15:22;4.27;;;3.97;;
2416;SDS011;1219;48.736;9.330;2023-05-07T04:17:47;3.60;;;3.30;;
2416;SDS011;1219;48.736;9.330;2023-05-07T04:20:14;7.53;;;3.70;;
2416;SDS011;1219;48.736;9.330;2023-05-07T04:22:40;6.33;;;4.00;;
2416;SDS011;1219;48.736;9.330;2023-05-07T04:25:07;4.97;;;4.67;;
2416;SDS011;1219;48.736;9.330;2023-05-07T04:27:34;4.13;;;3.80;;
2416;SDS011;1219;48.736;9.330;2023-05-07T04:30:00;6.50;;;3.90;;
2416;SDS011;1219;48.736;9.330;2023-05-07T04:32:27;3.93;;;3.63;;
2416;SDS011;1219;48.736;9.330;2023-05-07T04:34:54;3.80;;;3.50;;
2416;SDS011;1219;48.736;9.330;2023-05-07T04:37:20;3.50;;;3.20;;
2416;SDS011;1219;48.736;9.330;2023-05-07T04:39:46;3.27;;;3.07;;
2416;SDS011;1219;48.736;9.330;2023-05-07T04:42:15;3.60;;;3.20;;
2416;SDS011;1219;48.736;9.330;2023-05-07T04:44:42;4.17;;;3.87;;
2416;SDS011;1219;48.736;9.330;2023-05-07T04:47:08;3.30;;;3.10;;
2416;SDS011;1219;48.736;9.330;2023-05-07T04:49:33;3.70;;;3.47;;
2416;SDS011;1219;48.736;9.330;2023-05-07T04:51:59;3.50;;;3.30;;
2416;SDS011;1219;48.736;9.330;2023-05-07T04:54:26;3.70;;;3.50;;
2416;SDS011;1219;48.736;9.330;2023-05-07T04:56:52;3.70;;;3.40;;
2416;SDS011;1219;48.736;9.330;2023-05-07T04:59:18;3.50;;;3.30;;
2416;SDS011;1219;48.736;9.330;2023-05-07T05:01:43;5.30;;;3.67;;
2416;SDS011;1219;48.736;9.330;2023-05-07T05:04:09;4.20;;;3.90;;
2416;SDS011;1219;48.736;9.330;2023-05-07T05:06:35;3.73;;;3.40;;
2416;SDS011;1219;48.736;9.330;2023-05-07T05:09:01;5.90;;;3.90;;
2416;SDS011;1219;48.736;9.330;2023-05-07T05:11:29;4.50;;;3.63;;
2416;SDS011;1219;48.736;9.330;2023-05-07T05:13:55;3.60;;;3.40;;
2416;SDS011;1219;48.736;9.330;2023-05-07T05:16:21;3.97;;;3.60;;
2416;SDS011;1219;48.736;9.330;2023-05-07T05:18:47;3.70;;;3.40;;
2416;SDS011;1219;48.736;9.330;2023-05-07T05:21:13;4.40;;;4.00;;
2416;SDS011;1219;48.736;9.330;2023-05-07T05:23:39;3.70;;;3.40;;
2416;SDS011;1219;48.736;9.330;2023-05-07T05:26:05;3.83;;;3.43;;
2416;SDS011;1219;48.736;9.330;2023-05-07T05:28:31;4.50;;;2.93;;
2416;SDS011;1219;48.736;9.330;2023-05-07T05:30:57;4.17;;;3.87;;
2416;SDS011;1219;48.736;9.330;2023-05-07T05:33:23;4.30;;;4.00;;
2416;SDS011;1219;48.736;9.330;2023-05-07T05:35:49;4.53;;;4.17;;
2416;SDS011;1219;48.736;9.330;2023-05-07T05:38:15;4.20;;;3.90;;
2416;SDS011;1219;48.736;9.330;2023-05-07T05:40:41;4.40;;;4.00;;
2416;SDS011;1219;48.736;9.330;2023-05-07T05:43:07;4.40;;;4.00;;
2416;SDS011;1219;48.736;9.330;2023-05-07T05:45:33;5.27;;;4.83;;
2416;SDS011;1219;48.736;9.330;2023-05-07T05:48:00;5.03;;;4.53;;
2416;SDS011;1219;48.736;9.330;2023-05-07T05:50:26;4.40;;;4.10;;
2416;SDS011;1219;48.736;9.330;2023-05-07T05:52:52;5.03;;;4.60;;
2416;SDS011;1219;48.736;9.330;2023-05-07T05:55:18;4.13;;;3.83;;
2416;SDS011;1219;48.736;9.330;2023-05-07T05:57:44;5.03;;;4.63;;
2416;SDS011;1219;48.736;9.330;2023-05-07T06:00:11;5.77;;;5.23;;
2416;SDS011;1219;48.736;9.330;2023-05-07T06:02:37;4.63;;;4.03;;
2416;SDS011;1219;48.736;9.330;2023-05-07T06:05:03;4.93;;;4.43;;
2416;SDS011;1219;48.736;9.330;2023-05-07T06:07:29;7.10;;;5.00;;
2416;SDS011;1219;48.736;9.330;2023-05-07T06:09:55;5.37;;;4.90;;
2416;SDS011;1219;48.736;9.330;2023-05-07T06:12:21;6.20;;;4.00;;
2416;SDS011;1219;48.736;9.330;2023-05-07T06:14:47;4.10;;;3.80;;
2416;SDS011;1219;48.736;9.330;2023-05-07T06:17:13;4.50;;;4.03;;
2416;SDS011;1219;48.736;9.330;2023-05-07T06:19:39;8.07;;;4.73;;
2416;SDS011;1219;48.736;9.330;2023-05-07T06:22:05;5.90;;;3.50;;
2416;SDS011;1219;48.736;9.330;2023-05-07T06:24:31;5.50;;;3.50;;
2416;SDS011;1219;48.736;9.330;2023-05-07T06:26:57;4.27;;;3.87;;
2416;SDS011;1219;48.736;9.330;2023-05-07T06:29:23;4.13;;;3.80;;
2416;SDS011;1219;48.736;9.330;2023-05-07T06:31:51;4.43;;;3.40;;
2416;SDS011;1219;48.736;9.330;2023-05-07T06:34:17;4.10;;;3.70;;
2416;SDS011;1219;48.736;9.330;2023-05-07T06:36:43;3.33;;;3.13;;
2416;SDS011;1219;48.736;9.330;2023-05-07T06:39:09;4.20;;;3.63;;
2416;SDS011;1219;48.736;9.330;2023-05-07T06:41:35;3.83;;;3.23;;
2416;SDS011;1219;48.736;9.330;2023-05-07T06:44:01;4.13;;;3.50;;
2416;SDS011;1219;48.736;9.330;2023-05-07T06:46:27;3.90;;;3.50;;
2416;SDS011;1219;48.736;9.330;2023-05-07T06:48:53;2.80;;;2.60;;
2416;SDS011;1219;48.736;9.330;2023-05-07T06:51:20;4.80;;;3.13;;
2416;SDS011;1219;48.736;9.330;2023-05-07T06:53:45;3.83;;;3.00;;
2416;SDS011;1219;48.736;9.330;2023-05-07T06:56:11;4.03;;;3.73;;
2416;SDS011;1219;48.736;9.330;2023-05-07T06:58:37;4.27;;;3.33;;
2416;SDS011;1219;48.736;9.330;2023-05-07T07:01:03;4.10;;;3.80;;
2416;SDS011;1219;48.736;9.330;2023-05-07T07:03:29;4.33;;;3.93;;
2416;SDS011;1219;48.736;9.330;2023-05-07T07:05:56;3.40;;;3.20;;
2416;SDS011;1219;48.736;9.330;2023-05-07T07:08:22;4.50;;;3.40;;
2416;SDS011;1219;48.736;9.330;2023-05-07T07:10:48;4.20;;;3.90;;
2416;SDS011;1219;48.736;9.330;2023-05-07T07:13:14;4.67;;;3.40;;
2416;SDS011;1219;48.736;9.330;2023-05-07T07:15:40;4.93;;;4.00;;
2416;SDS011;1219;48.736;9.330;2023-05-07T07:18:06;5.00;;;3.77;;
2416;SDS011;1219;48.736;9.330;2023-05-07T07:20:32;4.77;;;3.17;;
2416;SDS011;1219;48.736;9.330;2023-05-07T07:22:58;4.40;;;3.10;;
2416;SDS011;1219;48.736;9.330;2023-05-07T07:25:24;3.90;;;3.60;;
2416;SDS011;1219;48.736;9.330;2023-05-07T07:27:50;4.53;;;4.13;;
2416;SDS011;1219;48.736;9.330;2023-05-07T07:30:16;3.50;;;3.13;;
2416;SDS011;1219;48.736;9.330;2023-05-07T07:32:43;7.30;;;3.70;;
2416;SDS011;1219;48.736;9.330;2023-05-07T07:35:08;3.50;;;3.30;;
2416;SDS011;1219;48.736;9.330;2023-05-07T07:37:35;4.20;;;3.47;;
2416;SDS011;1219;48.736;9.330;2023-05-07T07:40:01;3.93;;;2.97;;
2416;SDS011;1219;48.736;9.330;2023-05-07T07:42:28;3.33;;;3.10;;
2416;SDS011;1219;48.736;9.330;2023-05-07T07:44:54;2.80;;;2.70;;
2416;SDS011;1219;48.736;9.330;2023-05-07T07:47:22;3.90;;;3.60;;
2416;SDS011;1219;48.736;9.330;2023-05-07T07:49:48;3.53;;;3.27;;
2416;SDS011;1219;48.736;9.330;2023-05-07T07:52:14;3.17;;;2.63;;
2416;SDS011;1219;48.736;9.330;2023-05-07T07:54:40;3.40;;;3.20;;
2416;SDS011;1219;48.736;9.330;2023-05-07T07:57:06;3.50;;;3.30;;
2416;SDS011;1219;48.736;9.330;2023-05-07T07:59:32;3.27;;;2.97;;
2416;SDS011;1219;48.736;9.330;2023-05-07T08:01:58;2.73;;;2.53;;
2416;SDS011;1219;48.736;9.330;2023-05-07T08:04:24;7.37;;;2.90;;
2416;SDS011;1219;48.736;9.330;2023-05-07T08:06:50;3.57;;;3.17;;
2416;SDS011;1219;48.736;9.330;2023-05-07T08:09:16;2.90;;;2.70;;
2416;SDS011;1219;48.736;9.330;2023-05-07T08:11:42;3.10;;;2.87;;
2416;SDS011;1219;48.736;9.330;2023-05-07T08:14:08;3.67;;;2.70;;
2416;SDS011;1219;48.736;9.330;2023-05-07T08:16:34;3.90;;;3.60;;
2416;SDS011;1219;48.736;9.330;2023-05-07T08:18:59;3.90;;;2.80;;
2416;SDS011;1219;48.736;9.330;2023-05-07T08:21:25;4.70;;;2.50;;
2416;SDS011;1219;48.736;9.330;2023-05-07T08:23:51;3.13;;;2.93;;
2416;SDS011;1219;48.736;9.330;2023-05-07T08:26:17;5.13;;;2.77;;
2416;SDS011;1219;48.736;9.330;2023-05-07T08:28:43;3.13;;;2.73;;
2416;SDS011;1219;48.736;9.330;2023-05-07T08:31:09;3.63;;;2.53;;
2416;SDS011;1219;48.736;9.330;2023-05-07T08:33:35;2.90;;;2.70;;
2416;SDS011;1219;48.736;9.330;2023-05-07T08:36:03;2.90;;;2.63;;
2416;SDS011;1219;48.736;9.330;2023-05-07T08:38:29;3.20;;;3.00;;
2416;SDS011;1219;48.736;9.330;2023-05-07T08:40:55;2.93;;;2.63;;
2416;SDS011;1219;48.736;9.330;2023-05-07T08:43:21;2.43;;;2.23;;
2416;SDS011;1219;48.736;9.330;2023-05-07T08:45:47;3.20;;;3.00;;
2416;SDS011;1219;48.736;9.330;2023-05-07T08:48:15;3.03;;;2.83;;
2416;SDS011;1219;48.736;9.330;2023-05-07T08:50:42;3.20;;;3.00;;
2416;SDS011;1219;48.736;9.330;2023-05-07T08:53:07;2.97;;;2.77;;
2416;SDS011;1219;48.736;9.330;2023-05-07T08:55:34;2.50;;;2.30;;
2416;SDS011;1219;48.736;9.330;2023-05-07T08:58:00;3.73;;;3.00;;
2416;SDS011;1219;48.736;9.330;2023-05-07T09:00:26;3.50;;;3.13;;
2416;SDS011;1219;48.736;9.330;2023-05-07T09:02:53;3.73;;;3.50;;
2416;SDS011;1219;48.736;9.330;2023-05-07T09:05:19;3.43;;;2.73;;
2416;SDS011;1219;48.736;9.330;2023-05-07T09:07:46;3.23;;;2.60;;
2416;SDS011;1219;48.736;9.330;2023-05-07T09:10:12;4.67;;;2.93;;
2416;SDS011;1219;48.736;9.330;2023-05-07T09:12:39;2.73;;;2.53;;
2416;SDS011;1219;48.736;9.330;2023-05-07T09:15:06;3.17;;;2.93;;
2416;SDS011;1219;48.736;9.330;2023-05-07T09:17:32;3.30;;;2.57;;
2416;SDS011;1219;48.736;9.330;2023-05-07T09:20:04;2.90;;;2.70;;
2416;SDS011;1219;48.736;9.330;2023-05-07T09:22:33;3.43;;;2.60;;
2416;SDS011;1219;48.736;9.330;2023-05-07T09:25:00;2.63;;;2.43;;
2416;SDS011;1219;48.736;9.330;2023-05-07T09:27:26;4.00;;;3.10;;
2416;SDS011;1219;48.736;9.330;2023-05-07T09:29:51;2.10;;;2.00;;
2416;SDS011;1219;48.736;9.330;2023-05-07T09:32:18;3.00;;;2.53;;
2416;SDS011;1219;48.736;9.330;2023-05-07T09:34:44;2.50;;;2.30;;
2416;SDS011;1219;48.736;9.330;2023-05-07T09:37:10;2.50;;;2.40;;
2416;SDS011;1219;48.736;9.330;2023-05-07T09:42:06;3.73;;;2.50;;
2416;SDS011;1219;48.736;9.330;2023-05-07T09:44:33;2.87;;;2.53;;
2416;SDS011;1219;48.736;9.330;2023-05-07T09:46:59;2.23;;;2.00;;
2416;SDS011;1219;48.736;9.330;2023-05-07T09:49:27;2.40;;;2.30;;
2416;SDS011;1219;48.736;9.330;2023-05-07T09:51:55;2.83;;;2.50;;
2416;SDS011;1219;48.736;9.330;2023-05-07T09:54:21;2.60;;;2.40;;
2416;SDS011;1219;48.736;9.330;2023-05-07T09:56:48;2.40;;;2.10;;
2416;SDS011;1219;48.736;9.330;2023-05-07T09:59:15;3.03;;;2.20;;
2416;SDS011;1219;48.736;9.330;2023-05-07T10:01:41;2.67;;;2.00;;
2416;SDS011;1219;48.736;9.330;2023-05-07T10:04:08;2.23;;;1.83;;
2416;SDS011;1219;48.736;9.330;2023-05-07T10:06:34;2.17;;;1.97;;
2416;SDS011;1219;48.736;9.330;2023-05-07T10:09:01;2.23;;;2.03;;
2416;SDS011;1219;48.736;9.330;2023-05-07T10:11:27;2.23;;;2.03;;
2416;SDS011;1219;48.736;9.330;2023-05-07T10:13:54;2.53;;;2.30;;
2416;SDS011;1219;48.736;9.330;2023-05-07T10:16:20;2.50;;;2.30;;
2416;SDS011;1219;48.736;9.330;2023-05-07T10:18:46;3.10;;;2.17;;
2416;SDS011;1219;48.736;9.330;2023-05-07T10:23:44;3.00;;;2.40;;
2416;SDS011;1219;48.736;9.330;2023-05-07T10:26:10;3.20;;;1.80;;
2416;SDS011;1219;48.736;9.330;2023-05-07T10:28:38;3.47;;;2.40;;
2416;SDS011;1219;48.736;9.330;2023-05-07T10:33:31;2.43;;;2.20;;
2416;SDS011;1219;48.736;9.330;2023-05-07T10:35:58;2.50;;;2.30;;
2416;SDS011;1219;48.736;9.330;2023-05-07T10:38:25;2.27;;;2.00;;
2416;SDS011;1219;48.736;9.330;2023-05-07T10:40:52;2.93;;;1.90;;
2416;SDS011;1219;48.736;9.330;2023-05-07T10:43:18;2.30;;;2.10;;
2416;SDS011;1219;48.736;9.330;2023-05-07T10:45:49;4.73;;;1.87;;
2416;SDS011;1219;48.736;9.330;2023-05-07T10:48:30;1.70;;;1.60;;
2416;SDS011;1219;48.736;9.330;2023-05-07T10:53:42;2.93;;;2.20;;
2416;SDS011;1219;48.736;9.330;2023-05-07T10:58:43;1.80;;;1.70;;
2416;SDS011;1219;48.736;9.330;2023-05-07T11:01:09;1.83;;;1.73;;
2416;SDS011;1219;48.736;9.330;2023-05-07T11:03:37;2.60;;;1.60;;
2416;SDS011;1219;48.736;9.330;2023-05-07T11:06:23;1.90;;;1.70;;
2416;SDS011;1219;48.736;9.330;2023-05-07T11:11:18;2.33;;;2.10;;
2416;SDS011;1219;48.736;9.330;2023-05-07T11:13:45;2.70;;;1.80;;
2416;SDS011;1219;48.736;9.330;2023-05-07T11:16:18;4.73;;;1.97;;
2416;SDS011;1219;48.736;9.330;2023-05-07T11:21:20;2.20;;;1.87;;
2416;SDS011;1219;48.736;9.330;2023-05-07T11:23:57;4.50;;;2.00;;
2416;SDS011;1219;48.736;9.330;2023-05-07T11:26:23;1.80;;;1.50;;
2416;SDS011;1219;48.736;9.330;2023-05-07T11:28:50;3.43;;;1.90;;
2416;SDS011;1219;48.736;9.330;2023-05-07T11:31:20;2.10;;;1.53;;
2416;SDS011;1219;48.736;9.330;2023-05-07T11:33:46;2.23;;;1.53;;
2416;SDS011;1219;48.736;9.330;2023-05-07T11:36:12;1.73;;;1.63;;
2416;SDS011;1219;48.736;9.330;2023-05-07T11:38:38;1.67;;;1.57;;
2416;SDS011;1219;48.736;9.330;2023-05-07T11:41:04;1.70;;;1.60;;
2416;SDS011;1219;48.736;9.330;2023-05-07T11:43:31;1.50;;;1.40;;
2416;SDS011;1219;48.736;9.330;2023-05-07T11:46:07;1.57;;;1.43;;
2416;SDS011;1219;48.736;9.330;2023-05-07T11:48:33;2.40;;;1.67;;
2416;SDS011;1219;48.736;9.330;2023-05-07T11:51:00;1.90;;;1.67;;
2416;SDS011;1219;48.736;9.330;2023-05-07T11:53:27;1.70;;;1.53;;
2416;SDS011;1219;48.736;9.330;2023-05-07T11:55:54;1.60;;;1.50;;
2416;SDS011;1219;48.736;9.330;2023-05-07T11:58:21;1.60;;;1.50;;
2416;SDS011;1219;48.736;9.330;2023-05-07T12:00:48;1.60;;;1.50;;
2416;SDS011;1219;48.736;9.330;2023-05-07T12:03:14;1.80;;;1.70;;
2416;SDS011;1219;48.736;9.330;2023-05-07T12:05:40;1.80;;;1.70;;
2416;SDS011;1219;48.736;9.330;2023-05-07T12:08:07;2.47;;;2.27;;
2416;SDS011;1219;48.736;9.330;2023-05-07T12:10:33;4.23;;;1.90;;
2416;SDS011;1219;48.736;9.330;2023-05-07T12:12:59;1.60;;;1.50;;
2416;SDS011;1219;48.736;9.330;2023-05-07T12:15:25;1.90;;;1.80;;
2416;SDS011;1219;48.736;9.330;2023-05-07T12:17:51;1.80;;;1.70;;
2416;SDS011;1219;48.736;9.330;2023-05-07T12:20:17;1.70;;;1.60;;
2416;SDS011;1219;48.736;9.330;2023-05-07T12:22:43;3.80;;;1.77;;
2416;SDS011;1219;48.736;9.330;2023-05-07T12:25:09;2.73;;;1.80;;
2416;SDS011;1219;48.736;9.330;2023-05-07T12:27:38;3.10;;;1.83;;
2416;SDS011;1219;48.736;9.330;2023-05-07T12:30:05;2.07;;;1.97;;
2416;SDS011;1219;48.736;9.330;2023-05-07T12:32:31;3.30;;;2.00;;
2416;SDS011;1219;48.736;9.330;2023-05-07T12:35:01;4.03;;;2.00;;
2416;SDS011;1219;48.736;9.330;2023-05-07T12:37:27;2.30;;;1.90;;
2416;SDS011;1219;48.736;9.330;2023-05-07T12:42:38;2.00;;;1.90;;
2416;SDS011;1219;48.736;9.330;2023-05-07T12:45:10;2.20;;;2.00;;
2416;SDS011;1219;48.736;9.330;2023-05-07T12:47:37;2.37;;;2.17;;
2416;SDS011;1219;48.736;9.330;2023-05-07T12:50:04;2.30;;;2.10;;
2416;SDS011;1219;48.736;9.330;2023-05-07T12:52:31;2.27;;;2.17;;
2416;SDS011;1219;48.736;9.330;2023-05-07T12:54:57;3.03;;;2.07;;
2416;SDS011;1219;48.736;9.330;2023-05-07T12:57:30;2.40;;;1.80;;
2416;SDS011;1219;48.736;9.330;2023-05-07T12:59:57;2.67;;;1.83;;
2416;SDS011;1219;48.736;9.330;2023-05-07T13:02:31;4.00;;;1.97;;
2416;SDS011;1219;48.736;9.330;2023-05-07T13:04:57;7.93;;;4.30;;
2416;SDS011;1219;48.736;9.330;2023-05-07T13:07:24;9.87;;;4.07;;
2416;SDS011;1219;48.736;9.330;2023-05-07T13:09:50;10.03;;;6.10;;
2416;SDS011;1219;48.736;9.330;2023-05-07T13:12:16;5.97;;;4.50;;
2416;SDS011;1219;48.736;9.330;2023-05-07T13:14:42;18.20;;;6.33;;
2416;SDS011;1219;48.736;9.330;2023-05-07T13:17:08;10.20;;;4.10;;
2416;SDS011;1219;48.736;9.330;2023-05-07T13:19:34;10.10;;;4.37;;
2416;SDS011;1219;48.736;9.330;2023-05-07T13:22:02;12.10;;;5.00;;
2416;SDS011;1219;48.736;9.330;2023-05-07T13:24:28;13.70;;;5.70;;
2416;SDS011;1219;48.736;9.330;2023-05-07T13:26:54;6.83;;;4.63;;
2416;SDS011;1219;48.736;9.330;2023-05-07T13:29:20;5.20;;;3.90;;
2416;SDS011;1219;48.736;9.330;2023-05-07T13:31:53;5.03;;;4.63;;
2416;SDS011;1219;48.736;9.330;2023-05-07T13:34:19;8.70;;;4.30;;
2416;SDS011;1219;48.736;9.330;2023-05-07T13:36:45;4.20;;;3.87;;
2416;SDS011;1219;48.736;9.330;2023-05-07T13:39:11;5.47;;;3.30;;
2416;SDS011;1219;48.736;9.330;2023-05-07T13:41:37;4.63;;;2.57;;
2416;SDS011;1219;48.736;9.330;2023-05-07T13:44:03;8.90;;;3.00;;
2416;SDS011;1219;48.736;9.330;2023-05-07T13:46:29;3.30;;;3.00;;
2416;SDS011;1219;48.736;9.330;2023-05-07T13:48:56;5.60;;;2.70;;
2416;SDS011;1219;48.736;9.330;2023-05-07T13:51:22;2.80;;;2.60;;
2416;SDS011;1219;48.736;9.330;2023-05-07T13:53:47;12.40;;;2.83;;
2416;SDS011;1219;48.736;9.330;2023-05-07T13:56:14;2.57;;;2.10;;
2416;SDS011;1219;48.736;9.330;2023-05-07T13:58:40;5.17;;;2.47;;
2416;SDS011;1219;48.736;9.330;2023-05-07T14:01:06;3.37;;;2.77;;
2416;SDS011;1219;48.736;9.330;2023-05-07T14:03:32;3.23;;;2.90;;
2416;SDS011;1219;48.736;9.330;2023-05-07T14:05:59;5.67;;;2.70;;
2416;SDS011;1219;48.736;9.330;2023-05-07T14:08:26;2.97;;;2.70;;
2416;SDS011;1219;48.736;9.330;2023-05-07T14:10:52;2.87;;;2.13;;
2416;SDS011;1219;48.736;9.330;2023-05-07T14:13:18;2.40;;;2.03;;
2416;SDS011;1219;48.736;9.330;2023-05-07T14:15:44;2.60;;;2.07;;
2416;SDS011;1219;48.736;9.330;2023-05-07T14:18:12;4.13;;;2.30;;
2416;SDS011;1219;48.736;9.330;2023-05-07T14:20:38;6.00;;;2.97;;
2416;SDS011;1219;48.736;9.330;2023-05-07T14:23:04;5.10;;;2.57;;
2416;SDS011;1219;48.736;9.330;2023-05-07T14:25:30;4.10;;;2.40;;
2416;SDS011;1219;48.736;9.330;2023-05-07T14:27:55;5.13;;;3.07;;
2416;SDS011;1219;48.736;9.330;2023-05-07T14:30:21;2.93;;;2.73;;
2416;SDS011;1219;48.736;9.330;2023-05-07T14:32:49;5.17;;;2.73;;
2416;SDS011;1219;48.736;9.330;2023-05-07T14:35:15;3.13;;;2.63;;
2416;SDS011;1219;48.736;9.330;2023-05-07T14:37:41;2.33;;;2.13;;
2416;SDS011;1219;48.736;9.330;2023-05-07T14:40:07;2.37;;;2.17;;
2416;SDS011;1219;48.736;9.330;2023-05-07T14:42:33;3.13;;;2.90;;
2416;SDS011;1219;48.736;9.330;2023-05-07T14:44:59;6.53;;;3.27;;
2416;SDS011;1219;48.736;9.330;2023-05-07T14:47:25;5.80;;;2.90;;
2416;SDS011;1219;48.736;9.330;2023-05-07T14:49:51;5.90;;;3.70;;
2416;SDS011;1219;48.736;9.330;2023-05-07T14:52:18;3.50;;;3.23;;
2416;SDS011;1219;48.736;9.330;2023-05-07T14:54:44;9.60;;;3.60;;
2416;SDS011;1219;48.736;9.330;2023-05-07T14:57:10;3.07;;;2.83;;
2416;SDS011;1219;48.736;9.330;2023-05-07T14:59:41;3.07;;;2.77;;
2416;SDS011;1219;48.736;9.330;2023-05-07T15:02:07;4.97;;;3.10;;
2416;SDS011;1219;48.736;9.330;2023-05-07T15:04:34;3.63;;;2.80;;
2416;SDS011;1219;48.736;9.330;2023-05-07T15:07:00;3.43;;;2.77;;
2416;SDS011;1219;48.736;9.330;2023-05-07T15:09:26;2.87;;;2.67;;
2416;SDS011;1219;48.736;9.330;2023-05-07T15:11:52;2.87;;;2.63;;
2416;SDS011;1219;48.736;9.330;2023-05-07T15:14:18;3.40;;;3.07;;
2416;SDS011;1219;48.736;9.330;2023-05-07T15:16:46;3.13;;;2.83;;
2416;SDS011;1219;48.736;9.330;2023-05-07T15:19:12;6.53;;;2.93;;
2416;SDS011;1219;48.736;9.330;2023-05-07T15:21:39;4.53;;;3.13;;
2416;SDS011;1219;48.736;9.330;2023-05-07T15:24:06;3.77;;;3.47;;
2416;SDS011;1219;48.736;9.330;2023-05-07T15:26:32;3.03;;;2.80;;
2416;SDS011;1219;48.736;9.330;2023-05-07T15:28:57;3.60;;;3.23;;
2416;SDS011;1219;48.736;9.330;2023-05-07T15:31:24;4.10;;;2.80;;